sensor_id;sensor_type;location;lat;lon;timestamp;pressure;altitude;pressure_sealevel;temperature;humidity
69784;BME280;57054;51.978;4.498;2024-02-21T00:02:12;102149.97;;;8.61;100.00
69784;BME280;57054;51.978;4.498;2024-02-21T00:04:37;102147.38;;;8.60;100.00
69784;BME280;57054;51.978;4.498;2024-02-21T00:07:03;102136.06;;;8.59;100.00
69784;BME280;57054;51.978;4.498;2024-02-21T00:09:28;102134.31;;;8.58;100.00
69784;BME280;57054;51.978;4.498;2024-02-21T00:11:54;102140.44;;;8.57;100.00
69784;BME280;57054;51.978;4.498;2024-02-21T00:14:19;102140.44;;;8.57;100.00
69784;BME280;57054;51.978;4.498;2024-02-21T00:16:44;102136.09;;;8.56;100.00
69784;BME280;57054;51.978;4.498;2024-02-21T00:19:10;102127.38;;;8.57;100.00
69784;BME280;57054;51.978;4.498;2024-02-21T00:21:35;102129.09;;;8.60;100.00
69784;BME280;57054;51.978;4.498;2024-02-21T00:24:00;102124.75;;;8.60;100.00
69784;BME280;57054;51.978;4.498;2024-02-21T00:26:25;102152.66;;;8.57;100.00
69784;BME280;57054;51.978;4.498;2024-02-21T00:28:51;102146.53;;;8.58;100.00
69784;BME280;57054;51.978;4.498;2024-02-21T00:31:16;102138.69;;;8.56;100.00
69784;BME280;57054;51.978;4.498;2024-02-21T00:33:41;102147.44;;;8.55;100.00
69784;BME280;57054;51.978;4.498;2024-02-21T00:36:06;102157.91;;;8.52;100.00
69784;BME280;57054;51.978;4.498;2024-02-21T00:38:32;102145.72;;;8.53;100.00
69784;BME280;57054;51.978;4.498;2024-02-21T00:40:57;102141.38;;;8.53;100.00
69784;BME280;57054;51.978;4.498;2024-02-21T00:43:22;102145.72;;;8.53;100.00
69784;BME280;57054;51.978;4.498;2024-02-21T00:45:50;102136.16;;;8.53;100.00
69784;BME280;57054;51.978;4.498;2024-02-21T00:48:16;102145.69;;;8.54;100.00
69784;BME280;57054;51.978;4.498;2024-02-21T00:50:41;102123.88;;;8.58;100.00
69784;BME280;57054;51.978;4.498;2024-02-21T00:53:06;102130.88;;;8.56;100.00
69784;BME280;57054;51.978;4.498;2024-02-21T00:55:31;102127.38;;;8.57;100.00
69784;BME280;57054;51.978;4.498;2024-02-21T00:57:56;102125.72;;;8.53;100.00
69784;BME280;57054;51.978;4.498;2024-02-21T01:00:22;102117.88;;;8.53;100.00
69784;BME280;57054;51.978;4.498;2024-02-21T01:02:47;102116.97;;;8.54;100.00
69784;BME280;57054;51.978;4.498;2024-02-21T01:05:12;102129.16;;;8.55;100.00
69784;BME280;57054;51.978;4.498;2024-02-21T01:07:38;102112.66;;;8.53;100.00
69784;BME280;57054;51.978;4.498;2024-02-21T01:10:03;102108.28;;;8.55;100.00
69784;BME280;57054;51.978;4.498;2024-02-21T01:12:28;102096.94;;;8.55;100.00
69784;BME280;57054;51.978;4.498;2024-02-21T01:14:54;102109.97;;;8.56;100.00
69784;BME280;57054;51.978;4.498;2024-02-21T01:17:19;102098.66;;;8.57;100.00
69784;BME280;57054;51.978;4.498;2024-02-21T01:19:46;102103.03;;;8.57;100.00
69784;BME280;57054;51.978;4.498;2024-02-21T01:22:11;102095.19;;;8.57;100.00
69784;BME280;57054;51.978;4.498;2024-02-21T01:24:36;102103.88;;;8.59;100.00
69784;BME280;57054;51.978;4.498;2024-02-21T01:27:02;102092.53;;;8.58;100.00
69784;BME280;57054;51.978;4.498;2024-02-21T01:29:27;102089.06;;;8.58;100.00
69784;BME280;57054;51.978;4.498;2024-02-21T01:31:52;102085.59;;;8.57;100.00
69784;BME280;57054;51.978;4.498;2024-02-21T01:34:17;102083.88;;;8.55;100.00
69784;BME280;57054;51.978;4.498;2024-02-21T01:36:42;102082.16;;;8.55;100.00
69784;BME280;57054;51.978;4.498;2024-02-21T01:39:08;102082.16;;;8.55;100.00
69784;BME280;57054;51.978;4.498;2024-02-21T01:41:33;102069.94;;;8.59;100.00
69784;BME280;57054;51.978;4.498;2024-02-21T01:43:58;102068.25;;;8.53;100.00
69784;BME280;57054;51.978;4.498;2024-02-21T01:46:24;102072.59;;;8.54;100.00
69784;BME280;57054;51.978;4.498;2024-02-21T01:48:59;102077.78;;;8.56;100.00
69784;BME280;57054;51.978;4.498;2024-02-21T01:51:24;102070.00;;;8.53;100.00
69784;BME280;57054;51.978;4.498;2024-02-21T01:53:50;102073.47;;;8.53;100.00
69784;BME280;57054;51.978;4.498;2024-02-21T01:56:16;102072.63;;;8.51;100.00
69784;BME280;57054;51.978;4.498;2024-02-21T01:58:42;102063.91;;;8.52;100.00
69784;BME280;57054;51.978;4.498;2024-02-21T02:01:07;102065.66;;;8.52;100.00
69784;BME280;57054;51.978;4.498;2024-02-21T02:03:33;102058.66;;;8.57;100.00
69784;BME280;57054;51.978;4.498;2024-02-21T02:05:58;102052.53;;;8.58;100.00
69784;BME280;57054;51.978;4.498;2024-02-21T02:08:24;102047.31;;;8.56;100.00
69784;BME280;57054;51.978;4.498;2024-02-21T02:10:49;102047.31;;;8.56;100.00
69784;BME280;57054;51.978;4.498;2024-02-21T02:13:14;102045.63;;;8.52;100.00
69784;BME280;57054;51.978;4.498;2024-02-21T02:18:05;102040.38;;;8.57;100.00
69784;BME280;57054;51.978;4.498;2024-02-21T02:20:30;102050.81;;;8.55;100.00
69784;BME280;57054;51.978;4.498;2024-02-21T02:22:56;102044.75;;;8.53;100.00
69784;BME280;57054;51.978;4.498;2024-02-21T02:25:22;102044.78;;;8.50;100.00
69784;BME280;57054;51.978;4.498;2024-02-21T02:27:47;102027.34;;;8.52;100.00
69784;BME280;57054;51.978;4.498;2024-02-21T02:30:12;102034.38;;;8.49;100.00
69784;BME280;57054;51.978;4.498;2024-02-21T02:32:38;102029.13;;;8.49;100.00
69784;BME280;57054;51.978;4.498;2024-02-21T02:35:03;102027.41;;;8.48;100.00
69784;BME280;57054;51.978;4.498;2024-02-21T02:37:29;102023.91;;;8.49;100.00
69784;BME280;57054;51.978;4.498;2024-02-21T02:39:54;102023.91;;;8.50;100.00
69784;BME280;57054;51.978;4.498;2024-02-21T02:42:19;102030.00;;;8.49;100.00
69784;BME280;57054;51.978;4.498;2024-02-21T02:44:45;102015.22;;;8.50;100.00
69784;BME280;57054;51.978;4.498;2024-02-21T02:47:10;102017.84;;;8.48;100.00
69784;BME280;57054;51.978;4.498;2024-02-21T02:49:35;102011.72;;;8.49;100.00
69784;BME280;57054;51.978;4.498;2024-02-21T02:52:00;102015.22;;;8.50;100.00
69784;BME280;57054;51.978;4.498;2024-02-21T02:54:25;101999.47;;;8.54;100.00
69784;BME280;57054;51.978;4.498;2024-02-21T02:56:51;101991.63;;;8.56;100.00
69784;BME280;57054;51.978;4.498;2024-02-21T02:59:16;101982.03;;;8.55;100.00
69784;BME280;57054;51.978;4.498;2024-02-21T03:01:41;101982.94;;;8.55;100.00
69784;BME280;57054;51.978;4.498;2024-02-21T03:04:07;101978.59;;;8.53;100.00
69784;BME280;57054;51.978;4.498;2024-02-21T03:06:32;101981.19;;;8.56;100.00
69784;BME280;57054;51.978;4.498;2024-02-21T03:08:58;101975.97;;;8.56;100.00
69784;BME280;57054;51.978;4.498;2024-02-21T03:11:24;101965.50;;;8.56;100.00
69784;BME280;57054;51.978;4.498;2024-02-21T03:13:54;101977.66;;;8.58;100.00
69784;BME280;57054;51.978;4.498;2024-02-21T03:16:19;101969.88;;;8.55;100.00
69784;BME280;57054;51.978;4.498;2024-02-21T03:18:45;101954.19;;;8.57;100.00
69784;BME280;57054;51.978;4.498;2024-02-21T03:21:10;101951.59;;;8.57;100.00
69784;BME280;57054;51.978;4.498;2024-02-21T03:23:35;101942.03;;;8.54;100.00
69784;BME280;57054;51.978;4.498;2024-02-21T03:26:01;101943.69;;;8.58;100.00
69784;BME280;57054;51.978;4.498;2024-02-21T03:28:26;101947.22;;;8.57;100.00
69784;BME280;57054;51.978;4.498;2024-02-21T03:30:52;101948.91;;;8.60;100.00
69784;BME280;57054;51.978;4.498;2024-02-21T03:33:17;101941.13;;;8.57;100.00
69784;BME280;57054;51.978;4.498;2024-02-21T03:35:42;101934.97;;;8.61;100.00
69784;BME280;57054;51.978;4.498;2024-02-21T03:38:07;101933.31;;;8.57;100.00
69784;BME280;57054;51.978;4.498;2024-02-21T03:40:33;101934.13;;;8.60;100.00
69784;BME280;57054;51.978;4.498;2024-02-21T03:42:58;101940.25;;;8.56;100.00
69784;BME280;57054;51.978;4.498;2024-02-21T03:45:23;101936.69;;;8.62;100.00
69784;BME280;57054;51.978;4.498;2024-02-21T03:47:48;101941.88;;;8.63;100.00
69784;BME280;57054;51.978;4.498;2024-02-21T03:50:14;101938.44;;;8.63;100.00
69784;BME280;57054;51.978;4.498;2024-02-21T03:52:39;101928.84;;;8.62;100.00
69784;BME280;57054;51.978;4.498;2024-02-21T03:55:04;101930.72;;;8.55;100.00
69784;BME280;57054;51.978;4.498;2024-02-21T03:57:30;101920.19;;;8.58;100.00
69784;BME280;57054;51.978;4.498;2024-02-21T03:59:55;101918.53;;;8.54;100.00
69784;BME280;57054;51.978;4.498;2024-02-21T04:02:20;101915.88;;;8.59;100.00
69784;BME280;57054;51.978;4.498;2024-02-21T04:04:46;101913.31;;;8.53;100.00
69784;BME280;57054;51.978;4.498;2024-02-21T04:07:13;101918.47;;;8.59;100.00
69784;BME280;57054;51.978;4.498;2024-02-21T04:09:38;101920.28;;;8.55;100.00
69784;BME280;57054;51.978;4.498;2024-02-21T04:12:03;101926.38;;;8.54;100.00
69784;BME280;57054;51.978;4.498;2024-02-21T04:14:29;101926.31;;;8.57;100.00
69784;BME280;57054;51.978;4.498;2024-02-21T04:16:54;101921.16;;;8.53;100.00
69784;BME280;57054;51.978;4.498;2024-02-21T04:19:19;101924.66;;;8.53;100.00
69784;BME280;57054;51.978;4.498;2024-02-21T04:21:44;101918.56;;;8.51;100.00
69784;BME280;57054;51.978;4.498;2024-02-21T04:24:10;101924.69;;;8.52;100.00
69784;BME280;57054;51.978;4.498;2024-02-21T04:26:35;101919.44;;;8.52;100.00
69784;BME280;57054;51.978;4.498;2024-02-21T04:29:00;101910.72;;;8.53;100.00
69784;BME280;57054;51.978;4.498;2024-02-21T04:31:25;101909.88;;;8.52;100.00
69784;BME280;57054;51.978;4.498;2024-02-21T04:33:51;101904.66;;;8.51;100.00
69784;BME280;57054;51.978;4.498;2024-02-21T04:36:16;101899.41;;;8.52;100.00
69784;BME280;57054;51.978;4.498;2024-02-21T04:38:41;101893.28;;;8.55;100.00
69784;BME280;57054;51.978;4.498;2024-02-21T04:41:06;101893.28;;;8.55;100.00
69784;BME280;57054;51.978;4.498;2024-02-21T04:43:33;101888.16;;;8.49;100.00
69784;BME280;57054;51.978;4.498;2024-02-21T04:45:58;101889.94;;;8.47;100.00
69784;BME280;57054;51.978;4.498;2024-02-21T04:48:23;101882.94;;;8.49;100.00
69784;BME280;57054;51.978;4.498;2024-02-21T04:50:48;101890.78;;;8.49;100.00
69784;BME280;57054;51.978;4.498;2024-02-21T04:53:14;101889.91;;;8.48;100.00
69784;BME280;57054;51.978;4.498;2024-02-21T04:55:39;101883.78;;;8.51;100.00
69784;BME280;57054;51.978;4.498;2024-02-21T04:58:05;101872.47;;;8.50;100.00
69784;BME280;57054;51.978;4.498;2024-02-21T05:00:30;101869.81;;;8.53;100.00
69784;BME280;57054;51.978;4.498;2024-02-21T05:02:55;101860.28;;;8.51;100.00
69784;BME280;57054;51.978;4.498;2024-02-21T05:05:21;101856.81;;;8.50;100.00
69784;BME280;57054;51.978;4.498;2024-02-21T05:07:46;101849.97;;;8.43;100.00
69784;BME280;57054;51.978;4.498;2024-02-21T05:10:11;101847.34;;;8.41;100.00
69784;BME280;57054;51.978;4.498;2024-02-21T05:12:37;101840.38;;;8.43;100.00
69784;BME280;57054;51.978;4.498;2024-02-21T05:15:03;101838.63;;;8.44;100.00
69784;BME280;57054;51.978;4.498;2024-02-21T05:17:28;101840.38;;;8.42;100.00
69784;BME280;57054;51.978;4.498;2024-02-21T05:19:53;101836.88;;;8.44;100.00
69784;BME280;57054;51.978;4.498;2024-02-21T05:22:18;101829.09;;;8.38;100.00
69784;BME280;57054;51.978;4.498;2024-02-21T05:24:44;101822.19;;;8.37;100.00
69784;BME280;57054;51.978;4.498;2024-02-21T05:27:09;101822.19;;;8.37;100.00
69784;BME280;57054;51.978;4.498;2024-02-21T05:29:34;101813.50;;;8.37;100.00
69784;BME280;57054;51.978;4.498;2024-02-21T05:32:00;101803.16;;;8.27;100.00
69784;BME280;57054;51.978;4.498;2024-02-21T05:34:25;101806.59;;;8.31;100.00
69784;BME280;57054;51.978;4.498;2024-02-21T05:36:51;101799.56;;;8.35;100.00
69784;BME280;57054;51.978;4.498;2024-02-21T05:39:16;101790.81;;;8.40;100.00
69784;BME280;57054;51.978;4.498;2024-02-21T05:41:42;101787.31;;;8.43;100.00
69784;BME280;57054;51.978;4.498;2024-02-21T05:44:07;101780.34;;;8.43;100.00
69784;BME280;57054;51.978;4.498;2024-02-21T05:46:33;101785.56;;;8.42;100.00
69784;BME280;57054;51.978;4.498;2024-02-21T05:48:58;101784.69;;;8.44;100.00
69784;BME280;57054;51.978;4.498;2024-02-21T05:51:23;101787.31;;;8.43;100.00
69784;BME280;57054;51.978;4.498;2024-02-21T05:53:48;101780.38;;;8.40;100.00
69784;BME280;57054;51.978;4.498;2024-02-21T05:56:14;101770.78;;;8.42;100.00
69784;BME280;57054;51.978;4.498;2024-02-21T05:58:40;101769.03;;;8.40;100.00
69784;BME280;57054;51.978;4.498;2024-02-21T06:01:05;101771.69;;;8.38;100.00
69784;BME280;57054;51.978;4.498;2024-02-21T06:03:32;101764.72;;;8.40;100.00
69784;BME280;57054;51.978;4.498;2024-02-21T06:05:57;101763.00;;;8.38;100.00
69784;BME280;57054;51.978;4.498;2024-02-21T06:08:22;101751.69;;;8.37;100.00
69784;BME280;57054;51.978;4.498;2024-02-21T06:10:48;101766.44;;;8.40;100.00
69784;BME280;57054;51.978;4.498;2024-02-21T06:13:13;101767.31;;;8.42;100.00
69784;BME280;57054;51.978;4.498;2024-02-21T06:15:38;101764.75;;;8.37;100.00
69784;BME280;57054;51.978;4.498;2024-02-21T06:18:04;101763.00;;;8.36;100.00
69784;BME280;57054;51.978;4.498;2024-02-21T06:20:29;101770.84;;;8.36;100.00
69784;BME280;57054;51.978;4.498;2024-02-21T06:22:54;101769.16;;;8.34;100.00
69784;BME280;57054;51.978;4.498;2024-02-21T06:25:19;101779.56;;;8.37;100.00
69784;BME280;57054;51.978;4.498;2024-02-21T06:27:45;101779.56;;;8.37;100.00
69784;BME280;57054;51.978;4.498;2024-02-21T06:30:10;101780.44;;;8.36;100.00
69784;BME280;57054;51.978;4.498;2024-02-21T06:32:35;101773.47;;;8.36;100.00
69784;BME280;57054;51.978;4.498;2024-02-21T06:35:01;101771.91;;;8.24;100.00
69784;BME280;57054;51.978;4.498;2024-02-21T06:37:29;101763.13;;;8.30;100.00
69784;BME280;57054;51.978;4.498;2024-02-21T06:39:55;101760.50;;;8.32;100.00
69784;BME280;57054;51.978;4.498;2024-02-21T06:42:20;101756.00;;;8.38;100.00
69784;BME280;57054;51.978;4.498;2024-02-21T06:44:46;101749.94;;;8.38;100.00
69784;BME280;57054;51.978;4.498;2024-02-21T06:47:11;101746.47;;;8.37;100.00
69784;BME280;57054;51.978;4.498;2024-02-21T06:49:37;101744.75;;;8.36;100.00
69784;BME280;57054;51.978;4.498;2024-02-21T06:52:03;101737.72;;;8.40;100.00
69784;BME280;57054;51.978;4.498;2024-02-21T06:54:28;101730.75;;;8.42;100.00
69784;BME280;57054;51.978;4.498;2024-02-21T06:56:53;101737.72;;;8.40;100.00
69784;BME280;57054;51.978;4.498;2024-02-21T06:59:19;101739.47;;;8.41;100.00
69784;BME280;57054;51.978;4.498;2024-02-21T07:01:53;101740.34;;;8.38;100.00
69784;BME280;57054;51.978;4.498;2024-02-21T07:04:19;101737.78;;;8.37;100.00
69784;BME280;57054;51.978;4.498;2024-02-21T07:06:45;101732.53;;;8.38;100.00
69784;BME280;57054;51.978;4.498;2024-02-21T07:09:10;101728.16;;;8.42;100.00
69784;BME280;57054;51.978;4.498;2024-02-21T07:11:35;101717.72;;;8.40;100.00
69784;BME280;57054;51.978;4.498;2024-02-21T07:14:01;101721.19;;;8.42;100.00
69784;BME280;57054;51.978;4.498;2024-02-21T07:16:26;101722.06;;;8.40;100.00
69784;BME280;57054;51.978;4.498;2024-02-21T07:18:53;101719.47;;;8.38;100.00
69784;BME280;57054;51.978;4.498;2024-02-21T07:21:18;101703.88;;;8.37;100.00
69784;BME280;57054;51.978;4.498;2024-02-21T07:23:43;101705.59;;;8.36;100.00
69784;BME280;57054;51.978;4.498;2024-02-21T07:26:09;101699.53;;;8.36;100.00
69784;BME280;57054;51.978;4.498;2024-02-21T07:28:34;101689.13;;;8.33;100.00
69784;BME280;57054;51.978;4.498;2024-02-21T07:30:59;101682.19;;;8.33;100.00
69784;BME280;57054;51.978;4.498;2024-02-21T07:33:25;101683.03;;;8.34;100.00
69784;BME280;57054;51.978;4.498;2024-02-21T07:35:50;101680.38;;;8.37;100.00
69784;BME280;57054;51.978;4.498;2024-02-21T07:38:15;101680.28;;;8.40;100.00
69784;BME280;57054;51.978;4.498;2024-02-21T07:40:44;101684.69;;;8.38;100.00
69784;BME280;57054;51.978;4.498;2024-02-21T07:43:09;101683.00;;;8.35;100.00
69784;BME280;57054;51.978;4.498;2024-02-21T07:45:34;101679.50;;;8.36;100.00
69784;BME280;57054;51.978;4.498;2024-02-21T07:48:00;101671.63;;;8.38;100.00
69784;BME280;57054;51.978;4.498;2024-02-21T07:50:25;101659.50;;;8.37;100.00
69784;BME280;57054;51.978;4.498;2024-02-21T07:52:50;101660.38;;;8.36;100.00
69784;BME280;57054;51.978;4.498;2024-02-21T07:55:15;101641.16;;;8.38;100.00
69784;BME280;57054;51.978;4.498;2024-02-21T07:57:41;101643.84;;;8.35;100.00
69784;BME280;57054;51.978;4.498;2024-02-21T08:00:06;101640.38;;;8.35;100.00
69784;BME280;57054;51.978;4.498;2024-02-21T08:02:34;101653.38;;;8.36;100.00
69784;BME280;57054;51.978;4.498;2024-02-21T08:04:59;101646.44;;;8.37;100.00
69784;BME280;57054;51.978;4.498;2024-02-21T08:07:25;101651.66;;;8.37;100.00
69784;BME280;57054;51.978;4.498;2024-02-21T08:09:50;101644.75;;;8.33;100.00
69784;BME280;57054;51.978;4.498;2024-02-21T08:12:17;101643.06;;;8.30;100.00
69784;BME280;57054;51.978;4.498;2024-02-21T08:14:42;101635.13;;;8.36;100.00
69784;BME280;57054;51.978;4.498;2024-02-21T08:17:09;101626.41;;;8.37;100.00
69784;BME280;57054;51.978;4.498;2024-02-21T08:19:34;101624.81;;;8.29;100.00
69784;BME280;57054;51.978;4.498;2024-02-21T08:21:59;101622.19;;;8.30;100.00
69784;BME280;57054;51.978;4.498;2024-02-21T08:24:25;101606.50;;;8.32;100.00
69784;BME280;57054;51.978;4.498;2024-02-21T08:26:50;101609.97;;;8.32;100.00
69784;BME280;57054;51.978;4.498;2024-02-21T08:29:15;101609.13;;;8.32;100.00
69784;BME280;57054;51.978;4.498;2024-02-21T08:31:41;101611.72;;;8.32;100.00
69784;BME280;57054;51.978;4.498;2024-02-21T08:34:06;101599.56;;;8.31;100.00
69784;BME280;57054;51.978;4.498;2024-02-21T08:36:32;101599.53;;;8.32;100.00
69784;BME280;57054;51.978;4.498;2024-02-21T08:38:57;101595.16;;;8.33;100.00
69784;BME280;57054;51.978;4.498;2024-02-21T08:41:23;101602.91;;;8.37;100.00
69784;BME280;57054;51.978;4.498;2024-02-21T08:43:50;101590.72;;;8.38;100.00
69784;BME280;57054;51.978;4.498;2024-02-21T08:46:15;101587.28;;;8.36;100.00
69784;BME280;57054;51.978;4.498;2024-02-21T08:48:40;101585.50;;;8.38;100.00
69784;BME280;57054;51.978;4.498;2024-02-21T08:51:06;101579.41;;;8.39;100.00
69784;BME280;57054;51.978;4.498;2024-02-21T08:53:31;101581.09;;;8.43;100.00
69784;BME280;57054;51.978;4.498;2024-02-21T08:55:56;101580.22;;;8.41;100.00
69784;BME280;57054;51.978;4.498;2024-02-21T08:58:21;101572.34;;;8.44;100.00
69784;BME280;57054;51.978;4.498;2024-02-21T09:00:48;101574.25;;;8.34;100.00
69784;BME280;57054;51.978;4.498;2024-02-21T09:03:13;101569.81;;;8.39;100.00
69784;BME280;57054;51.978;4.498;2024-02-21T09:05:39;101558.53;;;8.39;100.00
69784;BME280;57054;51.978;4.498;2024-02-21T09:08:04;101564.56;;;8.41;100.00
69784;BME280;57054;51.978;4.498;2024-02-21T09:10:29;101548.03;;;8.42;100.00
69784;BME280;57054;51.978;4.498;2024-02-21T09:12:55;101544.41;;;8.49;100.00
69784;BME280;57054;51.978;4.498;2024-02-21T09:15:21;101542.56;;;8.54;100.00
69784;BME280;57054;51.978;4.498;2024-02-21T09:17:46;101525.16;;;8.55;100.00
69784;BME280;57054;51.978;4.498;2024-02-21T09:20:11;101525.28;;;8.49;100.00
69784;BME280;57054;51.978;4.498;2024-02-21T09:22:37;101521.78;;;8.50;100.00
69784;BME280;57054;51.978;4.498;2024-02-21T09:25:04;101517.31;;;8.55;100.00
69784;BME280;57054;51.978;4.498;2024-02-21T09:27:30;101493.03;;;8.51;100.00
69784;BME280;57054;51.978;4.498;2024-02-21T09:29:55;101493.78;;;8.56;100.00
69784;BME280;57054;51.978;4.498;2024-02-21T09:32:20;101479.78;;;8.60;100.00
69784;BME280;57054;51.978;4.498;2024-02-21T09:34:46;101475.31;;;8.64;100.00
69784;BME280;57054;51.978;4.498;2024-02-21T09:37:11;101474.47;;;8.63;100.00
69784;BME280;57054;51.978;4.498;2024-02-21T09:39:37;101463.16;;;8.64;100.00
69784;BME280;57054;51.978;4.498;2024-02-21T09:42:05;101467.44;;;8.67;100.00
69784;BME280;57054;51.978;4.498;2024-02-21T09:44:33;101452.59;;;8.69;100.00
69784;BME280;57054;51.978;4.498;2024-02-21T09:47:03;101443.03;;;8.70;100.00
69784;BME280;57054;51.978;4.498;2024-02-21T09:49:30;101433.41;;;8.72;100.00
69784;BME280;57054;51.978;4.498;2024-02-21T09:51:56;101433.41;;;8.72;100.00
69784;BME280;57054;51.978;4.498;2024-02-21T09:54:22;101432.44;;;8.74;100.00
69784;BME280;57054;51.978;4.498;2024-02-21T09:56:47;101429.78;;;8.77;100.00
69784;BME280;57054;51.978;4.498;2024-02-21T09:59:16;101433.25;;;8.78;100.00
69784;BME280;57054;51.978;4.498;2024-02-21T10:01:42;101418.34;;;8.81;100.00
69784;BME280;57054;51.978;4.498;2024-02-21T10:04:07;101412.25;;;8.82;100.00
69784;BME280;57054;51.978;4.498;2024-02-21T10:06:32;101410.47;;;8.84;100.00
69784;BME280;57054;51.978;4.498;2024-02-21T10:08:58;101401.72;;;8.86;100.00
69784;BME280;57054;51.978;4.498;2024-02-21T10:11:24;101381.72;;;8.84;100.00
69784;BME280;57054;51.978;4.498;2024-02-21T10:13:49;101367.75;;;8.86;100.00
69784;BME280;57054;51.978;4.498;2024-02-21T10:16:16;101357.28;;;8.87;100.00
69784;BME280;57054;51.978;4.498;2024-02-21T10:18:41;101351.13;;;8.90;100.00
69784;BME280;57054;51.978;4.498;2024-02-21T10:21:07;101361.50;;;8.91;100.00
69784;BME280;57054;51.978;4.498;2024-02-21T10:23:45;101362.41;;;8.92;100.00
69784;BME280;57054;51.978;4.498;2024-02-21T10:26:10;101362.38;;;8.93;100.00
69784;BME280;57054;51.978;4.498;2024-02-21T10:28:36;101379.66;;;8.97;100.00
69784;BME280;57054;51.978;4.498;2024-02-21T10:31:03;101373.53;;;8.98;100.00
69784;BME280;57054;51.978;4.498;2024-02-21T10:33:28;101378.66;;;9.03;100.00
69784;BME280;57054;51.978;4.498;2024-02-21T10:36:05;101372.56;;;9.02;100.00
69784;BME280;57054;51.978;4.498;2024-02-21T10:38:30;101365.69;;;8.98;100.00
69784;BME280;57054;51.978;4.498;2024-02-21T10:40:56;101353.50;;;8.99;100.00
69784;BME280;57054;51.978;4.498;2024-02-21T10:43:23;101367.41;;;8.99;100.00
69784;BME280;57054;51.978;4.498;2024-02-21T10:45:50;101359.63;;;8.98;100.00
69784;BME280;57054;51.978;4.498;2024-02-21T10:48:18;101352.69;;;8.97;100.00
69784;BME280;57054;51.978;4.498;2024-02-21T10:50:56;101355.31;;;8.97;100.00
69784;BME280;57054;51.978;4.498;2024-02-21T10:56:09;101352.63;;;8.98;100.00
69784;BME280;57054;51.978;4.498;2024-02-21T10:58:36;101345.75;;;8.96;100.00
69784;BME280;57054;51.978;4.498;2024-02-21T11:01:03;101343.97;;;8.96;100.00
69784;BME280;57054;51.978;4.498;2024-02-21T11:03:29;101336.06;;;8.99;100.00
69784;BME280;57054;51.978;4.498;2024-02-21T11:05:54;101295.00;;;9.05;100.00
69784;BME280;57054;51.978;4.498;2024-02-21T11:08:20;101306.22;;;9.08;100.00
69784;BME280;57054;51.978;4.498;2024-02-21T11:10:45;101297.41;;;9.12;100.00
69784;BME280;57054;51.978;4.498;2024-02-21T11:13:11;101293.94;;;9.12;100.00
69784;BME280;57054;51.978;4.498;2024-02-21T11:15:36;101290.44;;;9.11;100.00
69784;BME280;57054;51.978;4.498;2024-02-21T11:18:01;101292.06;;;9.17;100.00
69784;BME280;57054;51.978;4.498;2024-02-21T11:20:36;101286.00;;;9.15;100.00
69784;BME280;57054;51.978;4.498;2024-02-21T11:23:02;101283.31;;;9.18;100.00
69784;BME280;57054;51.978;4.498;2024-02-21T11:25:30;101256.19;;;9.22;100.00
69784;BME280;57054;51.978;4.498;2024-02-21T11:28:05;101243.03;;;9.25;100.00
69784;BME280;57054;51.978;4.498;2024-02-21T11:30:32;101239.38;;;9.31;100.00
69784;BME280;57054;51.978;4.498;2024-02-21T11:33:05;101250.69;;;9.31;100.00
69784;BME280;57054;51.978;4.498;2024-02-21T11:35:31;101230.53;;;9.35;100.00
69784;BME280;57054;51.978;4.498;2024-02-21T11:37:57;101225.28;;;9.36;100.00
69784;BME280;57054;51.978;4.498;2024-02-21T11:40:33;101226.97;;;9.39;100.00
69784;BME280;57054;51.978;4.498;2024-02-21T11:42:59;101218.19;;;9.40;100.00
69784;BME280;57054;51.978;4.498;2024-02-21T11:45:25;101218.44;;;9.32;100.00
69784;BME280;57054;51.978;4.498;2024-02-21T11:47:51;101209.88;;;9.27;100.00
69784;BME280;57054;51.978;4.498;2024-02-21T11:50:16;101202.84;;;9.29;100.00
69784;BME280;57054;51.978;4.498;2024-02-21T11:52:41;101208.94;;;9.30;100.00
69784;BME280;57054;51.978;4.498;2024-02-21T11:55:07;101203.63;;;9.31;100.00
69784;BME280;57054;51.978;4.498;2024-02-21T11:57:33;101193.34;;;9.27;100.00
69784;BME280;57054;51.978;4.498;2024-02-21T12:00:10;101174.97;;;9.30;100.00
69784;BME280;57054;51.978;4.498;2024-02-21T12:02:35;101174.97;;;9.30;100.00
69784;BME280;57054;51.978;4.498;2024-02-21T12:05:00;101175.03;;;9.27;100.00
69784;BME280;57054;51.978;4.498;2024-02-21T12:07:26;101161.19;;;9.25;100.00
69784;BME280;57054;51.978;4.498;2024-02-21T12:09:53;101130.84;;;9.19;100.00
69784;BME280;57054;51.978;4.498;2024-02-21T12:12:21;101129.91;;;9.21;100.00
69784;BME280;57054;51.978;4.498;2024-02-21T12:14:46;101126.28;;;9.26;100.00
69784;BME280;57054;51.978;4.498;2024-02-21T12:17:18;101118.50;;;9.24;100.00
69784;BME280;57054;51.978;4.498;2024-02-21T12:19:44;101113.28;;;9.24;100.00
69784;BME280;57054;51.978;4.498;2024-02-21T12:22:15;101103.81;;;9.20;100.00
69784;BME280;57054;51.978;4.498;2024-02-21T12:24:41;101088.13;;;9.20;100.00
69784;BME280;57054;51.978;4.498;2024-02-21T12:27:12;101082.94;;;9.18;100.00
69784;BME280;57054;51.978;4.498;2024-02-21T12:29:37;101067.34;;;9.17;100.00
69784;BME280;57054;51.978;4.498;2024-02-21T12:32:03;101056.13;;;9.13;100.00
69784;BME280;57054;51.978;4.498;2024-02-21T12:34:29;101051.84;;;9.11;100.00
69784;BME280;57054;51.978;4.498;2024-02-21T12:36:57;101044.25;;;9.03;100.00
69784;BME280;57054;51.978;4.498;2024-02-21T12:39:22;101058.19;;;9.02;100.00
69784;BME280;57054;51.978;4.498;2024-02-21T12:41:47;101047.69;;;9.03;100.00
69784;BME280;57054;51.978;4.498;2024-02-21T12:44:13;101042.47;;;9.03;100.00
69784;BME280;57054;51.978;4.498;2024-02-21T12:46:39;101038.22;;;9.01;100.00
69784;BME280;57054;51.978;4.498;2024-02-21T12:49:05;101032.91;;;9.04;100.00